sensor_id;sensor_type;location;lat;lon;timestamp;P1;durP1;ratioP1;P2;durP2;ratioP2
77158;SDS011;66129;45.890;13.714;2024-01-16T00:01:52;30.38;;;10.35;;
77158;SDS011;66129;45.890;13.714;2024-01-16T00:04:19;25.77;;;12.50;;
77158;SDS011;66129;45.890;13.714;2024-01-16T00:06:45;22.85;;;12.07;;
77158;SDS011;66129;45.890;13.714;2024-01-16T00:09:10;30.27;;;12.82;;
77158;SDS011;66129;45.890;13.714;2024-01-16T00:11:42;37.28;;;15.38;;
77158;SDS011;66129;45.890;13.714;2024-01-16T00:14:08;22.77;;;10.65;;
77158;SDS011;66129;45.890;13.714;2024-01-16T00:16:33;10.90;;;6.13;;
77158;SDS011;66129;45.890;13.714;2024-01-16T00:18:59;9.93;;;5.05;;
77158;SDS011;66129;45.890;13.714;2024-01-16T00:21:24;6.72;;;3.58;;
77158;SDS011;66129;45.890;13.714;2024-01-16T00:23:50;4.63;;;3.05;;
77158;SDS011;66129;45.890;13.714;2024-01-16T00:26:22;4.45;;;2.60;;
77158;SDS011;66129;45.890;13.714;2024-01-16T00:28:48;4.70;;;2.40;;
77158;SDS011;66129;45.890;13.714;2024-01-16T00:31:13;7.22;;;2.63;;
77158;SDS011;66129;45.890;13.714;2024-01-16T00:33:39;6.28;;;2.08;;
77158;SDS011;66129;45.890;13.714;2024-01-16T00:36:05;4.60;;;2.10;;
77158;SDS011;66129;45.890;13.714;2024-01-16T00:38:34;3.83;;;1.88;;
77158;SDS011;66129;45.890;13.714;2024-01-16T00:41:00;5.55;;;2.63;;
77158;SDS011;66129;45.890;13.714;2024-01-16T00:43:25;4.65;;;2.30;;
77158;SDS011;66129;45.890;13.714;2024-01-16T00:45:51;4.00;;;2.33;;
77158;SDS011;66129;45.890;13.714;2024-01-16T00:48:16;2.95;;;1.92;;
77158;SDS011;66129;45.890;13.714;2024-01-16T00:50:43;3.55;;;2.00;;
77158;SDS011;66129;45.890;13.714;2024-01-16T00:53:11;3.25;;;2.05;;
77158;SDS011;66129;45.890;13.714;2024-01-16T00:55:36;3.45;;;1.77;;
77158;SDS011;66129;45.890;13.714;2024-01-16T00:58:02;2.90;;;1.75;;
77158;SDS011;66129;45.890;13.714;2024-01-16T01:00:27;8.65;;;3.40;;
77158;SDS011;66129;45.890;13.714;2024-01-16T01:02:55;6.88;;;3.10;;
77158;SDS011;66129;45.890;13.714;2024-01-16T01:05:21;7.55;;;2.55;;
77158;SDS011;66129;45.890;13.714;2024-01-16T01:07:49;5.18;;;2.53;;
77158;SDS011;66129;45.890;13.714;2024-01-16T01:10:15;2.00;;;1.42;;
77158;SDS011;66129;45.890;13.714;2024-01-16T01:12:40;5.10;;;2.33;;
77158;SDS011;66129;45.890;13.714;2024-01-16T01:15:06;3.50;;;1.58;;
77158;SDS011;66129;45.890;13.714;2024-01-16T01:17:32;4.50;;;2.67;;
77158;SDS011;66129;45.890;13.714;2024-01-16T01:19:57;3.13;;;2.03;;
77158;SDS011;66129;45.890;13.714;2024-01-16T01:22:23;8.63;;;2.80;;
77158;SDS011;66129;45.890;13.714;2024-01-16T01:24:48;7.43;;;3.33;;
77158;SDS011;66129;45.890;13.714;2024-01-16T01:27:14;15.90;;;3.10;;
77158;SDS011;66129;45.890;13.714;2024-01-16T01:29:39;2.75;;;1.70;;
77158;SDS011;66129;45.890;13.714;2024-01-16T01:32:05;9.38;;;4.35;;
77158;SDS011;66129;45.890;13.714;2024-01-16T01:34:30;11.52;;;3.67;;
77158;SDS011;66129;45.890;13.714;2024-01-16T01:36:56;7.35;;;3.58;;
77158;SDS011;66129;45.890;13.714;2024-01-16T01:39:23;6.60;;;3.28;;
77158;SDS011;66129;45.890;13.714;2024-01-16T01:41:48;4.50;;;2.15;;
77158;SDS011;66129;45.890;13.714;2024-01-16T01:44:14;2.58;;;1.80;;
77158;SDS011;66129;45.890;13.714;2024-01-16T01:46:41;4.97;;;2.17;;
77158;SDS011;66129;45.890;13.714;2024-01-16T01:49:07;4.00;;;1.58;;
77158;SDS011;66129;45.890;13.714;2024-01-16T01:51:33;4.78;;;2.80;;
77158;SDS011;66129;45.890;13.714;2024-01-16T01:53:59;5.00;;;2.35;;
77158;SDS011;66129;45.890;13.714;2024-01-16T01:56:26;4.97;;;2.03;;
77158;SDS011;66129;45.890;13.714;2024-01-16T01:58:56;3.97;;;1.98;;
77158;SDS011;66129;45.890;13.714;2024-01-16T02:01:23;4.38;;;2.33;;
77158;SDS011;66129;45.890;13.714;2024-01-16T02:03:51;3.20;;;1.73;;
77158;SDS011;66129;45.890;13.714;2024-01-16T02:06:19;4.07;;;1.80;;
77158;SDS011;66129;45.890;13.714;2024-01-16T02:08:45;3.30;;;1.80;;
77158;SDS011;66129;45.890;13.714;2024-01-16T02:11:11;2.47;;;1.50;;
77158;SDS011;66129;45.890;13.714;2024-01-16T02:13:36;3.50;;;2.17;;
77158;SDS011;66129;45.890;13.714;2024-01-16T02:16:02;4.05;;;1.73;;
77158;SDS011;66129;45.890;13.714;2024-01-16T02:18:28;6.68;;;2.42;;
77158;SDS011;66129;45.890;13.714;2024-01-16T02:20:59;4.00;;;2.10;;
77158;SDS011;66129;45.890;13.714;2024-01-16T02:23:28;2.67;;;1.55;;
77158;SDS011;66129;45.890;13.714;2024-01-16T02:25:56;2.85;;;2.00;;
77158;SDS011;66129;45.890;13.714;2024-01-16T02:28:21;3.08;;;2.05;;
77158;SDS011;66129;45.890;13.714;2024-01-16T02:30:47;3.40;;;2.05;;
77158;SDS011;66129;45.890;13.714;2024-01-16T02:33:13;3.78;;;1.80;;
77158;SDS011;66129;45.890;13.714;2024-01-16T02:35:38;3.90;;;2.30;;
77158;SDS011;66129;45.890;13.714;2024-01-16T02:38:04;3.00;;;2.05;;
77158;SDS011;66129;45.890;13.714;2024-01-16T02:40:29;1.77;;;1.27;;
77158;SDS011;66129;45.890;13.714;2024-01-16T02:42:55;3.83;;;2.03;;
77158;SDS011;66129;45.890;13.714;2024-01-16T02:45:21;2.45;;;1.55;;
77158;SDS011;66129;45.890;13.714;2024-01-16T02:47:46;3.70;;;1.73;;
77158;SDS011;66129;45.890;13.714;2024-01-16T02:50:12;3.65;;;2.08;;
77158;SDS011;66129;45.890;13.714;2024-01-16T02:52:38;3.65;;;1.90;;
77158;SDS011;66129;45.890;13.714;2024-01-16T02:55:03;3.13;;;1.98;;
77158;SDS011;66129;45.890;13.714;2024-01-16T02:57:30;4.90;;;2.78;;
77158;SDS011;66129;45.890;13.714;2024-01-16T02:59:55;2.58;;;1.55;;
77158;SDS011;66129;45.890;13.714;2024-01-16T03:02:21;4.25;;;2.15;;
77158;SDS011;66129;45.890;13.714;2024-01-16T03:04:49;3.95;;;1.85;;
77158;SDS011;66129;45.890;13.714;2024-01-16T03:07:15;4.28;;;2.10;;
77158;SDS011;66129;45.890;13.714;2024-01-16T03:09:40;5.10;;;1.75;;
77158;SDS011;66129;45.890;13.714;2024-01-16T03:12:06;2.60;;;1.67;;
77158;SDS011;66129;45.890;13.714;2024-01-16T03:14:31;2.75;;;1.95;;
77158;SDS011;66129;45.890;13.714;2024-01-16T03:17:02;2.90;;;1.40;;
77158;SDS011;66129;45.890;13.714;2024-01-16T03:19:28;3.15;;;1.60;;
77158;SDS011;66129;45.890;13.714;2024-01-16T03:21:54;3.38;;;1.65;;
77158;SDS011;66129;45.890;13.714;2024-01-16T03:24:19;2.97;;;2.20;;
77158;SDS011;66129;45.890;13.714;2024-01-16T03:26:45;3.15;;;1.85;;
77158;SDS011;66129;45.890;13.714;2024-01-16T03:29:10;3.53;;;1.58;;
77158;SDS011;66129;45.890;13.714;2024-01-16T03:31:36;3.30;;;1.77;;
77158;SDS011;66129;45.890;13.714;2024-01-16T03:34:01;3.00;;;1.77;;
77158;SDS011;66129;45.890;13.714;2024-01-16T03:36:27;3.53;;;1.90;;
77158;SDS011;66129;45.890;13.714;2024-01-16T03:38:52;3.17;;;1.90;;
77158;SDS011;66129;45.890;13.714;2024-01-16T03:41:18;3.30;;;1.92;;
77158;SDS011;66129;45.890;13.714;2024-01-16T03:43:43;2.25;;;1.10;;
77158;SDS011;66129;45.890;13.714;2024-01-16T03:46:12;2.42;;;1.52;;
77158;SDS011;66129;45.890;13.714;2024-01-16T03:48:38;1.48;;;1.05;;
77158;SDS011;66129;45.890;13.714;2024-01-16T03:51:04;3.13;;;1.35;;
77158;SDS011;66129;45.890;13.714;2024-01-16T03:53:31;3.03;;;1.60;;
77158;SDS011;66129;45.890;13.714;2024-01-16T03:55:57;1.42;;;1.08;;
77158;SDS011;66129;45.890;13.714;2024-01-16T03:58:22;3.40;;;1.77;;
77158;SDS011;66129;45.890;13.714;2024-01-16T04:00:48;3.42;;;1.70;;
77158;SDS011;66129;45.890;13.714;2024-01-16T04:03:15;2.85;;;1.70;;
77158;SDS011;66129;45.890;13.714;2024-01-16T04:05:41;4.75;;;2.40;;
77158;SDS011;66129;45.890;13.714;2024-01-16T04:08:07;3.03;;;2.00;;
77158;SDS011;66129;45.890;13.714;2024-01-16T04:10:32;3.63;;;1.58;;
77158;SDS011;66129;45.890;13.714;2024-01-16T04:13:00;3.72;;;2.30;;
77158;SDS011;66129;45.890;13.714;2024-01-16T04:15:26;3.85;;;2.03;;
77158;SDS011;66129;45.890;13.714;2024-01-16T04:17:52;3.83;;;1.80;;
77158;SDS011;66129;45.890;13.714;2024-01-16T04:20:17;4.38;;;2.13;;
77158;SDS011;66129;45.890;13.714;2024-01-16T04:22:43;4.20;;;1.90;;
77158;SDS011;66129;45.890;13.714;2024-01-16T04:25:08;3.22;;;2.10;;
77158;SDS011;66129;45.890;13.714;2024-01-16T04:27:34;3.40;;;1.77;;
77158;SDS011;66129;45.890;13.714;2024-01-16T04:30:00;4.13;;;2.20;;
77158;SDS011;66129;45.890;13.714;2024-01-16T04:32:25;2.90;;;2.05;;
77158;SDS011;66129;45.890;13.714;2024-01-16T04:34:51;1.63;;;1.08;;
77158;SDS011;66129;45.890;13.714;2024-01-16T04:37:16;4.35;;;2.03;;
77158;SDS011;66129;45.890;13.714;2024-01-16T04:39:42;3.72;;;1.80;;
77158;SDS011;66129;45.890;13.714;2024-01-16T04:42:07;3.53;;;1.58;;
77158;SDS011;66129;45.890;13.714;2024-01-16T04:44:33;2.75;;;1.40;;
77158;SDS011;66129;45.890;13.714;2024-01-16T04:46:58;3.28;;;2.30;;
77158;SDS011;66129;45.890;13.714;2024-01-16T04:49:23;1.73;;;1.25;;
77158;SDS011;66129;45.890;13.714;2024-01-16T04:51:49;1.77;;;1.42;;
77158;SDS011;66129;45.890;13.714;2024-01-16T04:54:14;2.95;;;1.77;;
77158;SDS011;66129;45.890;13.714;2024-01-16T04:56:40;3.65;;;1.58;;
77158;SDS011;66129;45.890;13.714;2024-01-16T04:59:05;2.08;;;1.52;;
77158;SDS011;66129;45.890;13.714;2024-01-16T05:01:31;2.85;;;1.65;;
77158;SDS011;66129;45.890;13.714;2024-01-16T05:03:56;1.25;;;0.85;;
77158;SDS011;66129;45.890;13.714;2024-01-16T05:06:22;1.50;;;1.25;;
77158;SDS011;66129;45.890;13.714;2024-01-16T05:08:47;2.40;;;1.50;;
77158;SDS011;66129;45.890;13.714;2024-01-16T05:11:13;1.92;;;1.30;;
77158;SDS011;66129;45.890;13.714;2024-01-16T05:13:39;3.45;;;1.60;;
77158;SDS011;66129;45.890;13.714;2024-01-16T05:16:05;5.45;;;1.52;;
77158;SDS011;66129;45.890;13.714;2024-01-16T05:18:31;5.25;;;1.83;;
77158;SDS011;66129;45.890;13.714;2024-01-16T05:20:58;3.00;;;1.67;;
77158;SDS011;66129;45.890;13.714;2024-01-16T05:23:23;3.45;;;1.88;;
77158;SDS011;66129;45.890;13.714;2024-01-16T05:25:49;3.22;;;1.83;;
77158;SDS011;66129;45.890;13.714;2024-01-16T05:28:14;2.28;;;1.50;;
77158;SDS011;66129;45.890;13.714;2024-01-16T05:30:40;3.75;;;1.77;;
77158;SDS011;66129;45.890;13.714;2024-01-16T05:33:05;3.03;;;1.90;;
77158;SDS011;66129;45.890;13.714;2024-01-16T05:35:32;3.30;;;1.80;;
77158;SDS011;66129;45.890;13.714;2024-01-16T05:37:57;5.80;;;3.13;;
77158;SDS011;66129;45.890;13.714;2024-01-16T05:40:24;2.70;;;1.73;;
77158;SDS011;66129;45.890;13.714;2024-01-16T05:42:50;2.65;;;1.58;;
77158;SDS011;66129;45.890;13.714;2024-01-16T05:45:15;2.33;;;1.58;;
77158;SDS011;66129;45.890;13.714;2024-01-16T05:47:41;1.80;;;1.35;;
77158;SDS011;66129;45.890;13.714;2024-01-16T05:50:07;3.22;;;1.85;;
77158;SDS011;66129;45.890;13.714;2024-01-16T05:52:33;1.52;;;1.25;;
77158;SDS011;66129;45.890;13.714;2024-01-16T05:54:59;3.38;;;1.60;;
77158;SDS011;66129;45.890;13.714;2024-01-16T05:57:25;2.78;;;2.00;;
77158;SDS011;66129;45.890;13.714;2024-01-16T05:59:51;2.78;;;2.13;;
77158;SDS011;66129;45.890;13.714;2024-01-16T06:02:16;2.60;;;1.77;;
77158;SDS011;66129;45.890;13.714;2024-01-16T06:04:42;3.85;;;2.05;;
77158;SDS011;66129;45.890;13.714;2024-01-16T06:07:07;3.40;;;1.73;;
77158;SDS011;66129;45.890;13.714;2024-01-16T06:09:33;2.45;;;1.75;;
77158;SDS011;66129;45.890;13.714;2024-01-16T06:12:03;4.72;;;1.65;;
77158;SDS011;66129;45.890;13.714;2024-01-16T06:14:29;3.85;;;1.95;;
77158;SDS011;66129;45.890;13.714;2024-01-16T06:16:54;4.82;;;2.08;;
77158;SDS011;66129;45.890;13.714;2024-01-16T06:19:20;4.15;;;1.77;;
77158;SDS011;66129;45.890;13.714;2024-01-16T06:21:46;2.30;;;1.73;;
77158;SDS011;66129;45.890;13.714;2024-01-16T06:24:11;6.85;;;3.10;;
77158;SDS011;66129;45.890;13.714;2024-01-16T06:26:38;2.05;;;1.42;;
77158;SDS011;66129;45.890;13.714;2024-01-16T06:29:04;3.55;;;2.03;;
77158;SDS011;66129;45.890;13.714;2024-01-16T06:31:29;3.13;;;2.10;;
77158;SDS011;66129;45.890;13.714;2024-01-16T06:33:54;3.35;;;1.90;;
77158;SDS011;66129;45.890;13.714;2024-01-16T06:36:20;4.85;;;1.95;;
77158;SDS011;66129;45.890;13.714;2024-01-16T06:38:46;3.65;;;1.17;;
77158;SDS011;66129;45.890;13.714;2024-01-16T06:41:11;2.50;;;1.40;;
77158;SDS011;66129;45.890;13.714;2024-01-16T06:43:37;3.60;;;1.63;;
77158;SDS011;66129;45.890;13.714;2024-01-16T06:46:04;5.22;;;2.13;;
77158;SDS011;66129;45.890;13.714;2024-01-16T06:48:30;2.97;;;1.50;;
77158;SDS011;66129;45.890;13.714;2024-01-16T06:50:56;5.32;;;2.92;;
77158;SDS011;66129;45.890;13.714;2024-01-16T06:53:21;6.80;;;2.95;;
77158;SDS011;66129;45.890;13.714;2024-01-16T06:55:47;5.40;;;2.30;;
77158;SDS011;66129;45.890;13.714;2024-01-16T06:58:13;6.60;;;3.40;;
77158;SDS011;66129;45.890;13.714;2024-01-16T07:00:39;3.67;;;2.13;;
77158;SDS011;66129;45.890;13.714;2024-01-16T07:03:06;3.03;;;1.85;;
77158;SDS011;66129;45.890;13.714;2024-01-16T07:05:32;3.13;;;1.60;;
77158;SDS011;66129;45.890;13.714;2024-01-16T07:07:58;3.13;;;1.70;;
77158;SDS011;66129;45.890;13.714;2024-01-16T07:10:23;2.60;;;1.58;;
77158;SDS011;66129;45.890;13.714;2024-01-16T07:12:49;2.67;;;1.65;;
77158;SDS011;66129;45.890;13.714;2024-01-16T07:15:16;1.83;;;1.50;;
77158;SDS011;66129;45.890;13.714;2024-01-16T07:17:42;4.32;;;1.48;;
77158;SDS011;66129;45.890;13.714;2024-01-16T07:20:08;2.20;;;1.33;;
77158;SDS011;66129;45.890;13.714;2024-01-16T07:22:34;2.15;;;1.23;;
77158;SDS011;66129;45.890;13.714;2024-01-16T07:24:59;2.28;;;1.15;;
77158;SDS011;66129;45.890;13.714;2024-01-16T07:27:25;3.42;;;1.98;;
77158;SDS011;66129;45.890;13.714;2024-01-16T07:29:51;2.60;;;1.42;;
77158;SDS011;66129;45.890;13.714;2024-01-16T07:32:16;4.38;;;1.75;;
77158;SDS011;66129;45.890;13.714;2024-01-16T07:34:42;2.33;;;1.27;;
77158;SDS011;66129;45.890;13.714;2024-01-16T07:37:08;2.35;;;0.95;;
77158;SDS011;66129;45.890;13.714;2024-01-16T07:39:33;2.03;;;1.30;;
77158;SDS011;66129;45.890;13.714;2024-01-16T07:41:59;4.40;;;2.17;;
77158;SDS011;66129;45.890;13.714;2024-01-16T07:44:25;1.75;;;1.35;;
77158;SDS011;66129;45.890;13.714;2024-01-16T07:46:50;11.93;;;4.75;;
77158;SDS011;66129;45.890;13.714;2024-01-16T07:49:16;1.85;;;1.30;;
77158;SDS011;66129;45.890;13.714;2024-01-16T07:51:41;4.53;;;2.47;;
77158;SDS011;66129;45.890;13.714;2024-01-16T07:54:08;5.35;;;2.58;;
77158;SDS011;66129;45.890;13.714;2024-01-16T07:56:35;8.43;;;4.63;;
77158;SDS011;66129;45.890;13.714;2024-01-16T07:59:01;2.33;;;1.50;;
77158;SDS011;66129;45.890;13.714;2024-01-16T08:01:27;3.65;;;1.48;;
77158;SDS011;66129;45.890;13.714;2024-01-16T08:03:56;2.22;;;1.33;;
77158;SDS011;66129;45.890;13.714;2024-01-16T08:06:22;3.78;;;2.30;;
77158;SDS011;66129;45.890;13.714;2024-01-16T08:08:48;4.38;;;1.70;;
77158;SDS011;66129;45.890;13.714;2024-01-16T08:11:14;5.38;;;2.40;;
77158;SDS011;66129;45.890;13.714;2024-01-16T08:13:40;3.83;;;2.20;;
77158;SDS011;66129;45.890;13.714;2024-01-16T08:16:06;6.75;;;3.95;;
77158;SDS011;66129;45.890;13.714;2024-01-16T08:18:33;9.93;;;5.00;;
77158;SDS011;66129;45.890;13.714;2024-01-16T08:20:59;10.95;;;5.70;;
77158;SDS011;66129;45.890;13.714;2024-01-16T08:23:24;6.72;;;3.50;;
77158;SDS011;66129;45.890;13.714;2024-01-16T08:25:50;4.63;;;1.92;;
77158;SDS011;66129;45.890;13.714;2024-01-16T08:28:17;3.45;;;1.73;;
77158;SDS011;66129;45.890;13.714;2024-01-16T08:30:42;3.05;;;1.42;;
77158;SDS011;66129;45.890;13.714;2024-01-16T08:33:08;1.70;;;1.27;;
77158;SDS011;66129;45.890;13.714;2024-01-16T08:35:34;2.33;;;1.58;;
77158;SDS011;66129;45.890;13.714;2024-01-16T08:37:59;2.42;;;1.58;;
77158;SDS011;66129;45.890;13.714;2024-01-16T08:40:25;2.90;;;1.95;;
77158;SDS011;66129;45.890;13.714;2024-01-16T08:42:50;3.35;;;1.50;;
77158;SDS011;66129;45.890;13.714;2024-01-16T08:45:20;2.67;;;1.65;;
77158;SDS011;66129;45.890;13.714;2024-01-16T08:47:46;3.33;;;2.28;;
77158;SDS011;66129;45.890;13.714;2024-01-16T08:50:11;2.97;;;1.55;;
77158;SDS011;66129;45.890;13.714;2024-01-16T08:52:37;3.30;;;1.75;;
77158;SDS011;66129;45.890;13.714;2024-01-16T08:55:03;2.75;;;1.73;;
77158;SDS011;66129;45.890;13.714;2024-01-16T08:57:29;2.65;;;1.35;;
77158;SDS011;66129;45.890;13.714;2024-01-16T08:59:54;4.95;;;1.55;;
77158;SDS011;66129;45.890;13.714;2024-01-16T09:02:20;2.83;;;1.50;;
77158;SDS011;66129;45.890;13.714;2024-01-16T09:04:49;1.95;;;0.98;;
77158;SDS011;66129;45.890;13.714;2024-01-16T09:07:16;1.58;;;1.05;;
77158;SDS011;66129;45.890;13.714;2024-01-16T09:09:42;2.42;;;1.20;;
77158;SDS011;66129;45.890;13.714;2024-01-16T09:12:10;1.60;;;0.95;;
77158;SDS011;66129;45.890;13.714;2024-01-16T09:14:35;2.70;;;1.40;;
77158;SDS011;66129;45.890;13.714;2024-01-16T09:17:01;2.22;;;1.42;;
77158;SDS011;66129;45.890;13.714;2024-01-16T09:19:28;1.25;;;0.82;;
77158;SDS011;66129;45.890;13.714;2024-01-16T09:21:54;3.58;;;1.73;;
77158;SDS011;66129;45.890;13.714;2024-01-16T09:24:20;1.77;;;1.33;;
77158;SDS011;66129;45.890;13.714;2024-01-16T09:26:45;2.08;;;1.40;;
77158;SDS011;66129;45.890;13.714;2024-01-16T09:29:10;2.47;;;1.55;;
77158;SDS011;66129;45.890;13.714;2024-01-16T09:31:36;3.15;;;1.80;;
77158;SDS011;66129;45.890;13.714;2024-01-16T09:34:02;3.38;;;1.85;;
77158;SDS011;66129;45.890;13.714;2024-01-16T09:36:28;3.30;;;1.52;;
77158;SDS011;66129;45.890;13.714;2024-01-16T09:38:54;1.73;;;1.17;;
77158;SDS011;66129;45.890;13.714;2024-01-16T09:41:20;3.00;;;1.58;;
77158;SDS011;66129;45.890;13.714;2024-01-16T09:43:46;2.00;;;1.40;;
77158;SDS011;66129;45.890;13.714;2024-01-16T09:46:12;2.80;;;1.73;;
77158;SDS011;66129;45.890;13.714;2024-01-16T09:48:41;2.28;;;1.48;;
77158;SDS011;66129;45.890;13.714;2024-01-16T09:51:10;2.65;;;1.67;;
77158;SDS011;66129;45.890;13.714;2024-01-16T09:53:39;1.30;;;0.80;;
77158;SDS011;66129;45.890;13.714;2024-01-16T09:56:06;2.08;;;1.30;;
77158;SDS011;66129;45.890;13.714;2024-01-16T09:58:39;2.35;;;1.30;;
77158;SDS011;66129;45.890;13.714;2024-01-16T10:01:05;2.58;;;1.27;;
77158;SDS011;66129;45.890;13.714;2024-01-16T10:03:31;3.85;;;1.85;;
77158;SDS011;66129;45.890;13.714;2024-01-16T10:06:00;4.60;;;2.05;;
77158;SDS011;66129;45.890;13.714;2024-01-16T10:08:29;2.45;;;1.50;;
77158;SDS011;66129;45.890;13.714;2024-01-16T10:10:55;3.28;;;1.60;;
77158;SDS011;66129;45.890;13.714;2024-01-16T10:13:20;2.83;;;1.33;;
77158;SDS011;66129;45.890;13.714;2024-01-16T10:15:49;4.22;;;1.70;;
77158;SDS011;66129;45.890;13.714;2024-01-16T10:18:22;2.80;;;1.27;;
77158;SDS011;66129;45.890;13.714;2024-01-16T10:20:49;2.13;;;1.00;;
77158;SDS011;66129;45.890;13.714;2024-01-16T10:23:31;2.80;;;1.30;;
77158;SDS011;66129;45.890;13.714;2024-01-16T10:28:42;2.35;;;1.40;;
77158;SDS011;66129;45.890;13.714;2024-01-16T10:31:08;2.70;;;1.52;;
77158;SDS011;66129;45.890;13.714;2024-01-16T10:33:39;2.80;;;1.65;;
77158;SDS011;66129;45.890;13.714;2024-01-16T10:36:09;4.93;;;1.90;;
77158;SDS011;66129;45.890;13.714;2024-01-16T10:38:39;3.28;;;1.98;;
77158;SDS011;66129;45.890;13.714;2024-01-16T10:43:34;2.63;;;1.58;;
77158;SDS011;66129;45.890;13.714;2024-01-16T10:46:07;5.35;;;2.30;;
77158;SDS011;66129;45.890;13.714;2024-01-16T10:48:34;2.63;;;1.67;;
77158;SDS011;66129;45.890;13.714;2024-01-16T10:51:01;5.47;;;2.60;;
77158;SDS011;66129;45.890;13.714;2024-01-16T10:53:28;4.70;;;2.70;;
77158;SDS011;66129;45.890;13.714;2024-01-16T10:55:59;2.25;;;1.60;;
77158;SDS011;66129;45.890;13.714;2024-01-16T10:58:26;3.15;;;1.67;;
77158;SDS011;66129;45.890;13.714;2024-01-16T11:00:56;2.38;;;1.65;;
77158;SDS011;66129;45.890;13.714;2024-01-16T11:03:34;2.22;;;1.27;;
77158;SDS011;66129;45.890;13.714;2024-01-16T11:06:05;2.95;;;1.67;;
77158;SDS011;66129;45.890;13.714;2024-01-16T11:08:33;2.53;;;1.52;;
77158;SDS011;66129;45.890;13.714;2024-01-16T11:11:01;3.20;;;2.00;;
77158;SDS011;66129;45.890;13.714;2024-01-16T11:13:29;2.25;;;1.35;;
77158;SDS011;66129;45.890;13.714;2024-01-16T11:15:57;1.90;;;1.33;;
77158;SDS011;66129;45.890;13.714;2024-01-16T11:18:24;3.97;;;1.58;;
77158;SDS011;66129;45.890;13.714;2024-01-16T11:20:51;2.00;;;1.40;;
77158;SDS011;66129;45.890;13.714;2024-01-16T11:23:19;2.70;;;1.45;;
77158;SDS011;66129;45.890;13.714;2024-01-16T11:25:45;2.88;;;1.30;;
77158;SDS011;66129;45.890;13.714;2024-01-16T11:28:11;2.03;;;1.13;;
77158;SDS011;66129;45.890;13.714;2024-01-16T11:30:38;2.55;;;1.50;;
77158;SDS011;66129;45.890;13.714;2024-01-16T11:33:05;2.65;;;1.30;;
77158;SDS011;66129;45.890;13.714;2024-01-16T11:35:35;2.03;;;1.13;;
77158;SDS011;66129;45.890;13.714;2024-01-16T11:38:13;3.30;;;1.48;;
77158;SDS011;66129;45.890;13.714;2024-01-16T11:40:44;2.08;;;1.30;;
77158;SDS011;66129;45.890;13.714;2024-01-16T11:45:58;6.68;;;1.70;;
77158;SDS011;66129;45.890;13.714;2024-01-16T11:48:24;2.38;;;1.50;;
77158;SDS011;66129;45.890;13.714;2024-01-16T11:50:50;2.58;;;1.40;;
77158;SDS011;66129;45.890;13.714;2024-01-16T12:01:41;1.92;;;1.48;;
77158;SDS011;66129;45.890;13.714;2024-01-16T12:04:09;3.30;;;1.50;;
77158;SDS011;66129;45.890;13.714;2024-01-16T12:06:35;3.92;;;2.00;;
77158;SDS011;66129;45.890;13.714;2024-01-16T12:09:12;5.35;;;3.00;;
77158;SDS011;66129;45.890;13.714;2024-01-16T12:11:42;1.88;;;1.20;;
77158;SDS011;66129;45.890;13.714;2024-01-16T12:14:10;1.45;;;1.10;;
77158;SDS011;66129;45.890;13.714;2024-01-16T12:16:37;3.10;;;1.45;;
77158;SDS011;66129;45.890;13.714;2024-01-16T12:19:06;1.73;;;1.05;;
77158;SDS011;66129;45.890;13.714;2024-01-16T12:21:45;3.75;;;1.80;;
77158;SDS011;66129;45.890;13.714;2024-01-16T12:24:11;6.70;;;2.70;;
77158;SDS011;66129;45.890;13.714;2024-01-16T12:26:38;9.57;;;3.53;;
77158;SDS011;66129;45.890;13.714;2024-01-16T12:29:04;5.95;;;2.80;;
77158;SDS011;66129;45.890;13.714;2024-01-16T12:31:31;4.65;;;1.88;;
77158;SDS011;66129;45.890;13.714;2024-01-16T12:34:04;2.38;;;1.50;;
77158;SDS011;66129;45.890;13.714;2024-01-16T12:36:32;3.58;;;2.05;;
77158;SDS011;66129;45.890;13.714;2024-01-16T12:38:57;2.67;;;1.50;;
77158;SDS011;66129;45.890;13.714;2024-01-16T12:41:23;3.47;;;1.58;;
77158;SDS011;66129;45.890;13.714;2024-01-16T12:43:51;2.33;;;1.40;;
77158;SDS011;66129;45.890;13.714;2024-01-16T12:46:17;2.67;;;1.52;;
77158;SDS011;66129;45.890;13.714;2024-01-16T12:48:44;3.50;;;1.60;;
77158;SDS011;66129;45.890;13.714;2024-01-16T12:51:12;3.95;;;1.42;;
77158;SDS011;66129;45.890;13.714;2024-01-16T12:53:46;3.65;;;1.70;;
77158;SDS011;66129;45.890;13.714;2024-01-16T12:56:11;3.35;;;1.90;;
77158;SDS011;66129;45.890;13.714;2024-01-16T12:58:37;2.20;;;1.30;;
77158;SDS011;66129;45.890;13.714;2024-01-16T13:03:49;5.00;;;1.88;;
77158;SDS011;66129;45.890;13.714;2024-01-16T13:06:19;3.15;;;1.55;;
77158;SDS011;66129;45.890;13.714;2024-01-16T13:08:49;2.72;;;1.48;;
77158;SDS011;66129;45.890;13.714;2024-01-16T13:11:15;3.33;;;1.70;;
77158;SDS011;66129;45.890;13.714;2024-01-16T13:13:48;2.55;;;1.30;;
77158;SDS011;66129;45.890;13.714;2024-01-16T13:16:13;3.95;;;1.63;;
77158;SDS011;66129;45.890;13.714;2024-01-16T13:18:40;4.13;;;2.15;;
77158;SDS011;66129;45.890;13.714;2024-01-16T13:21:05;3.10;;;1.60;;
77158;SDS011;66129;45.890;13.714;2024-01-16T13:23:31;4.45;;;2.83;;
77158;SDS011;66129;45.890;13.714;2024-01-16T13:25:57;3.75;;;2.05;;
77158;SDS011;66129;45.890;13.714;2024-01-16T13:28:25;2.95;;;1.50;;
77158;SDS011;66129;45.890;13.714;2024-01-16T13:30:52;3.83;;;1.60;;
77158;SDS011;66129;45.890;13.714;2024-01-16T13:33:17;6.65;;;2.90;;
77158;SDS011;66129;45.890;13.714;2024-01-16T13:35:44;2.58;;;1.83;;
77158;SDS011;66129;45.890;13.714;2024-01-16T13:38:12;2.47;;;1.52;;
77158;SDS011;66129;45.890;13.714;2024-01-16T13:40:38;3.08;;;1.50;;
77158;SDS011;66129;45.890;13.714;2024-01-16T13:43:04;3.08;;;1.05;;
77158;SDS011;66129;45.890;13.714;2024-01-16T13:45:31;2.50;;;1.40;;
77158;SDS011;66129;45.890;13.714;2024-01-16T13:47:58;3.25;;;1.80;;
77158;SDS011;66129;45.890;13.714;2024-01-16T13:50:23;17.33;;;8.82;;
77158;SDS011;66129;45.890;13.714;2024-01-16T13:52:49;4.00;;;2.10;;
77158;SDS011;66129;45.890;13.714;2024-01-16T13:55:16;2.10;;;1.50;;
77158;SDS011;66129;45.890;13.714;2024-01-16T13:57:43;2.08;;;1.25;;
77158;SDS011;66129;45.890;13.714;2024-01-16T14:00:10;2.90;;;1.50;;
77158;SDS011;66129;45.890;13.714;2024-01-16T14:02:47;2.78;;;1.40;;
77158;SDS011;66129;45.890;13.714;2024-01-16T14:05:14;2.53;;;1.52;;
77158;SDS011;66129;45.890;13.714;2024-01-16T14:07:42;3.80;;;2.00;;
77158;SDS011;66129;45.890;13.714;2024-01-16T14:10:10;2.42;;;1.40;;
77158;SDS011;66129;45.890;13.714;2024-01-16T14:12:37;3.17;;;1.52;;
77158;SDS011;66129;45.890;13.714;2024-01-16T14:15:08;3.20;;;1.55;;
77158;SDS011;66129;45.890;13.714;2024-01-16T14:17:40;2.45;;;1.60;;
77158;SDS011;66129;45.890;13.714;2024-01-16T14:20:06;4.18;;;1.60;;
77158;SDS011;66129;45.890;13.714;2024-01-16T14:22:36;1.92;;;1.40;;
77158;SDS011;66129;45.890;13.714;2024-01-16T14:25:02;3.13;;;1.70;;
77158;SDS011;66129;45.890;13.714;2024-01-16T14:27:35;4.20;;;2.42;;
77158;SDS011;66129;45.890;13.714;2024-01-16T14:30:08;3.50;;;2.08;;
77158;SDS011;66129;45.890;13.714;2024-01-16T14:32:35;3.63;;;1.98;;
77158;SDS011;66129;45.890;13.714;2024-01-16T14:35:10;4.15;;;1.60;;
77158;SDS011;66129;45.890;13.714;2024-01-16T14:37:38;4.18;;;2.22;;
77158;SDS011;66129;45.890;13.714;2024-01-16T14:40:05;4.88;;;2.75;;
77158;SDS011;66129;45.890;13.714;2024-01-16T14:42:41;4.97;;;2.38;;
77158;SDS011;66129;45.890;13.714;2024-01-16T14:45:12;5.53;;;2.20;;
77158;SDS011;66129;45.890;13.714;2024-01-16T14:47:38;5.70;;;2.80;;
77158;SDS011;66129;45.890;13.714;2024-01-16T14:50:04;6.10;;;2.63;;